Allenton, Wisconsin
Current Conditions -  °F | °C
As of 5:15 AM on Sunday 23 Nov 2014 (Local Time) from KETB Reporting Station
Overcast Overcast  
Wind Chill:   Ceiling: 700
Heat Index:   Visibility: 10mi
Dew Point:   Wind: 10mph
Humidity: 87%   Direction: 190°S
Pressure: 29.68"   Gusts: 17mph
Location:  43.42°N, 88.34°W
Report Text: KETB 231115Z AUTO 19009G15KT 10SM OVC007 09/07 A2968 RMK AO2
Loading
Personal Weather Stations






























Interactive Weather Map New forecast layout! Learn more

10-Day Weather Forecast

Advertisements
Track Severe Weather on mobile